메인 페이지
METAR-TAF:

METAR-TAF

공항 :

암스테르담 스키폴 국제공항

암스테르담, 네덜란드

위도: 52-18N, 경도: 004-46E, 고도: -4m

현재 날씨관측

예보는 38분 전, 11:25시(UTC)에 발표되었습니다.
서남서8kt남남서풍과 풍을 오가는
온도 15°C
습도 67%
기압 1031 hPa
시정 10km 이상
고도 2300ft 상공 구름 조금

METAR: EHAM 201125Z 24008KT 200V270 9999 FEW023 15/09 Q1031 NOSIG

시각: 14:03 (12:03 UTC)

예보

예보는 1 시간 1분 전, 11:02시(UTC)에 발표되었습니다.
예보 대상 시간: 20일 12시부터 21일 18시까지 (UTC)
7kt
시정 10km 이상
고도 3000ft 상공 구름 조금
전환 중
20일 17시부터 20일 20시까지 (UTC)
남남서7kt
고도 2000ft 상공 구름 보통
확률 30% :
일시적
21일 00시부터 21일 08시까지 (UTC)
시정: 5000m
박무, 낮은 안개

TAF: EHAM 201102Z 2012/2118 28007KT 9999 FEW030 BECMG 2017/2020 21007KT SCT020 PROB30 TEMPO 2100/2108 5000 BR MIFG

4,000개 이상의 공항 관측 자료 및 예보 (METAR 및 TAF 보고).

지도상에서 검색 가능한 기상관측소가 노란 점과 빨간 점으로 표시되어 있습니다.

기상관측소 명을 보려면 표시 위로 마우스를 이동하세요.

날씨 관측과 예보를 보려면 클릭하세요.

지도 변경 : 확대하려면 엑스 표시가 있는 녹색 버튼, 축소하려면 빼기 표시가 있는 녹색 버튼, 다음 페이지의 지도를 보려면 녹색 화살표를 클릭하세요.


METAR-TAF: